Aérodrome :
LOGIN :

S'inscrire | Disclaimer

   EN    FR    IT 

 










Légende :    VFR   VFR Marginal   IFR   IFR Intensif   IFR Très Intensif
Visi : 
Plafond : 
>= 8 km
>= 3000ft
5 à 8 km
1000 à 3000 ft
1500m à 5 km
500 à 1000 ft
800 à 1500m
200 à 500 ft
< 800m
< 200 ft
Symboles :   Orages  Brouillard  Fortes neiges  Fortes précipitations  Vent > 20 kt
SIGMETs :   Divers  Orages  Givrage  Turbulence  Onde Orograph.  Cendres Volcan.






- Altitude de l'aérodrome : 140 ft


ESTL - Ljungbyhed

DERNIER METAR :
  • 271120Z AUTO 00000KT 9999 R29L///// FEW029/// 03/M04 Q0998

METARs EXPIRÉS :
  • 271050Z AUTO VRB01KT //// R29L///// FEW027/// 02/M04 Q0998
  • 271020Z AUTO 00000KT //// R29L///// NCD 02/M04 Q0998
  • 270950Z AUTO 00000KT //// R29L///// NCD 01/M04 Q0998
  • 270920Z AUTO 08002KT //// R29L///// NCD 01/M03 Q0998
  • 270850Z AUTO VRB01KT //// R29L///// FEW038/// M00/M02 Q0998

TAF TAF ESTL
Valide du 27 à 07h jusqu'au 27 à 15h UTC


270602Z 2707/2715 VRB02KT 9999 SCT025



MET'MAP, la Météo Aéronautique d'un coup d'oeil ! - Copyright ORBIFLY Décembre 2007 - Disclaimer

ORBIFLY MET'MAP TEAM :

Programmation & Développement : Alexandra Zaïnal
Sur une idée originale de : Baudouin d'Aumeries
Assistance à la programmation : Marc-Olivier Méhu
Soutien technique & logistique : Manuel Goepfert

Contact : metmap@orbifly.com




SOURCES & CREDITS :

   NOAA